createdAt,value
2022-10-07T00:03:44.115Z,1024.91
2022-10-07T00:08:45.404Z,1024.97
2022-10-07T00:13:46.646Z,1025.03
2022-10-07T00:18:47.905Z,1025.00
2022-10-07T00:23:49.204Z,1024.95
2022-10-07T00:28:50.736Z,1024.97
2022-10-07T00:33:49.982Z,1024.97
2022-10-07T00:38:52.087Z,1024.87
2022-10-07T00:43:51.338Z,1024.84
2022-10-07T00:48:52.576Z,1024.85
2022-10-07T00:53:53.737Z,1024.85
2022-10-07T00:58:54.964Z,1024.86
2022-10-07T01:03:56.189Z,1024.82
2022-10-07T01:08:58.298Z,1024.76
2022-10-07T01:13:58.379Z,1024.69
2022-10-07T01:18:57.617Z,1024.64
2022-10-07T01:23:58.799Z,1024.68
2022-10-07T01:29:00.932Z,1024.59
2022-10-07T01:34:00.112Z,1024.59
2022-10-07T01:39:01.268Z,1024.50
2022-10-07T01:44:02.448Z,1024.54
2022-10-07T01:49:03.662Z,1024.54
2022-10-07T01:54:04.856Z,1024.52
2022-10-07T01:59:06.042Z,1024.42
2022-10-07T02:04:07.427Z,1024.44
2022-10-07T02:09:08.657Z,1024.38
2022-10-07T02:14:09.887Z,1024.38
2022-10-07T02:19:11.091Z,1024.19
2022-10-07T02:24:12.411Z,1024.19
2022-10-07T02:29:13.699Z,1024.15
2022-10-07T02:34:19.539Z,1024.10
2022-10-07T02:39:14.839Z,1024.08
2022-10-07T02:44:16.920Z,1024.04
2022-10-07T02:49:16.074Z,1023.96
2022-10-07T02:54:17.284Z,1023.93
2022-10-07T02:59:18.420Z,1023.86
2022-10-07T03:04:20.569Z,1023.88
2022-10-07T03:09:19.743Z,1023.83
2022-10-07T03:14:20.823Z,1023.85
2022-10-07T03:19:22.026Z,1023.86
2022-10-07T03:24:24.144Z,1023.91
2022-10-07T03:29:25.232Z,1023.88
2022-10-07T03:34:24.336Z,1023.83
2022-10-07T03:39:25.566Z,1023.81
2022-10-07T03:44:26.773Z,1023.85
2022-10-07T03:49:27.911Z,1023.86
2022-10-07T03:54:29.275Z,1023.80
2022-10-07T03:59:30.458Z,1023.86
2022-10-07T04:04:31.566Z,1023.81
2022-10-07T04:09:32.753Z,1023.81
2022-10-07T04:14:33.951Z,1023.85
2022-10-07T04:19:35.129Z,1023.83
2022-10-07T04:24:36.328Z,1023.83
2022-10-07T04:29:39.249Z,1023.75
2022-10-07T04:34:38.490Z,1023.72
2022-10-07T04:39:59.691Z,1023.78
2022-10-07T04:44:40.635Z,1023.75
2022-10-07T04:49:41.875Z,1023.72
2022-10-07T04:54:44.050Z,1023.72
2022-10-07T04:59:43.392Z,1023.76
2022-10-07T05:04:44.643Z,1023.76
2022-10-07T05:09:45.735Z,1023.64
2022-10-07T05:14:46.919Z,1023.65
2022-10-07T05:19:47.993Z,1023.66
2022-10-07T05:24:49.170Z,1023.72
2022-10-07T05:29:50.400Z,1023.69
2022-10-07T05:34:51.778Z,1023.72
2022-10-07T05:39:52.918Z,1023.67
2022-10-07T05:44:54.059Z,1023.71
2022-10-07T05:49:55.258Z,1023.63
2022-10-07T05:54:56.459Z,1023.63
2022-10-07T05:59:57.634Z,1023.69
2022-10-07T06:04:58.789Z,1023.69
2022-10-07T06:10:00.886Z,1023.67
2022-10-07T06:14:59.987Z,1023.71
2022-10-07T06:20:01.281Z,1023.75
2022-10-07T06:25:02.424Z,1023.76
2022-10-07T06:30:04.523Z,1023.79
2022-10-07T06:35:03.623Z,1023.82
2022-10-07T06:40:04.959Z,1023.86
2022-10-07T06:45:08.063Z,1023.89
2022-10-07T06:50:07.156Z,1023.92
2022-10-07T06:55:09.290Z,1023.87
2022-10-07T07:00:08.388Z,1023.80
2022-10-07T07:05:09.644Z,1023.81
2022-10-07T07:10:10.732Z,1023.83
2022-10-07T07:15:12.169Z,1023.85
2022-10-07T07:20:14.306Z,1023.86
2022-10-07T07:25:13.432Z,1023.82
2022-10-07T07:30:15.528Z,1023.85
2022-10-07T07:35:14.694Z,1023.86
2022-10-07T07:40:15.793Z,1023.83
2022-10-07T07:45:17.892Z,1023.81
2022-10-07T07:50:16.999Z,1023.77
2022-10-07T07:55:19.190Z,1023.72
2022-10-07T08:00:18.314Z,1023.70
2022-10-07T08:05:23.699Z,1023.74
2022-10-07T08:10:19.348Z,1023.70
2022-10-07T08:15:21.501Z,1023.68
2022-10-07T08:20:20.626Z,1023.66
2022-10-07T08:25:21.779Z,1023.65
2022-10-07T08:30:22.881Z,1023.63
2022-10-07T08:35:23.990Z,1023.53
2022-10-07T08:40:26.125Z,1023.49
2022-10-07T08:45:25.530Z,1023.44
2022-10-07T08:50:26.963Z,1023.37
2022-10-07T08:55:29.104Z,1023.36
2022-10-07T09:00:28.354Z,1023.32
2022-10-07T09:05:29.657Z,1023.28
2022-10-07T09:10:31.796Z,1023.20
2022-10-07T09:15:31.050Z,1023.12
2022-10-07T09:20:32.309Z,1023.03
2022-10-07T09:25:33.593Z,1023.01
2022-10-07T09:30:34.703Z,1022.90
2022-10-07T09:35:36.020Z,1022.76
2022-10-07T09:40:37.285Z,1022.78
2022-10-07T09:45:38.381Z,1022.80
2022-10-07T09:50:39.481Z,1022.71
2022-10-07T09:55:39.581Z,1022.62
2022-10-07T10:00:41.060Z,1022.60
2022-10-07T10:05:40.374Z,1022.57
2022-10-07T10:10:41.515Z,1022.53
2022-10-07T10:15:43.781Z,1022.46
2022-10-07T10:20:42.896Z,1022.39
2022-10-07T10:25:43.104Z,1022.32
2022-10-07T10:30:44.212Z,1022.27
2022-10-07T10:35:45.297Z,1022.25
2022-10-07T10:40:46.636Z,1022.19
2022-10-07T10:45:47.754Z,1022.16
2022-10-07T10:50:49.058Z,1022.06
2022-10-07T10:55:51.168Z,1021.99
2022-10-07T11:00:50.266Z,1021.87
2022-10-07T11:05:51.647Z,1021.84
2022-10-07T11:10:53.773Z,1021.79
2022-10-07T11:15:53.892Z,1021.79
2022-10-07T11:20:54.023Z,1021.63
2022-10-07T11:25:53.386Z,1021.60
2022-10-07T11:30:54.576Z,1021.49
2022-10-07T11:35:55.831Z,1021.40
2022-10-07T11:40:56.959Z,1021.41
2022-10-07T11:45:58.148Z,1021.31
2022-10-07T11:50:59.296Z,1021.20
2022-10-07T11:56:01.596Z,1021.16
2022-10-07T12:01:01.758Z,1021.14
2022-10-07T12:06:00.914Z,1021.10
2022-10-07T12:11:03.110Z,1021.01
2022-10-07T12:16:02.365Z,1020.89
2022-10-07T12:21:04.458Z,1020.76
2022-10-07T12:26:04.560Z,1020.74
2022-10-07T12:31:03.828Z,1020.68
2022-10-07T12:36:05.091Z,1020.55
2022-10-07T12:41:06.319Z,1020.53
2022-10-07T12:46:07.533Z,1020.38
2022-10-07T12:51:08.640Z,1020.39
2022-10-07T12:56:09.760Z,1020.34
2022-10-07T13:01:12.009Z,1020.35
2022-10-07T13:06:11.236Z,1020.21
2022-10-07T13:11:12.398Z,1020.22
2022-10-07T13:16:13.563Z,1020.19
2022-10-07T13:21:14.676Z,1020.20
2022-10-07T13:26:16.803Z,1020.16
2022-10-07T13:31:15.987Z,1020.11
2022-10-07T13:36:18.134Z,1020.05
2022-10-07T13:41:17.243Z,1020.09
2022-10-07T13:46:18.402Z,1020.00
2022-10-07T13:51:20.612Z,1020.00
2022-10-07T13:56:19.707Z,1019.97
2022-10-07T14:01:21.877Z,1019.94
2022-10-07T14:06:21.019Z,1019.97
2022-10-07T14:11:22.227Z,1019.82
2022-10-07T14:16:23.417Z,1019.86
2022-10-07T14:21:24.539Z,1019.89
2022-10-07T14:26:25.640Z,1019.79
2022-10-07T14:31:26.987Z,1019.80
2022-10-07T14:36:28.352Z,1019.79
2022-10-07T14:41:28.692Z,1019.71
2022-10-07T14:46:30.888Z,1019.62
2022-10-07T14:51:29.966Z,1019.67
2022-10-07T14:56:31.167Z,1019.55
2022-10-07T15:01:32.316Z,1019.47
2022-10-07T15:06:33.504Z,1019.36
2022-10-07T15:11:34.611Z,1019.33
2022-10-07T15:16:36.199Z,1019.36
2022-10-07T15:21:35.560Z,1019.31
2022-10-07T15:26:36.887Z,1019.29
2022-10-07T15:31:38.148Z,1019.19
2022-10-07T15:36:39.390Z,1019.12
2022-10-07T15:41:45.119Z,1019.19
2022-10-07T15:46:40.385Z,1019.14
2022-10-07T15:51:42.464Z,1019.02
2022-10-07T15:56:42.556Z,1019.01
2022-10-07T16:01:41.686Z,1018.94
2022-10-07T16:06:42.839Z,1018.98
2022-10-07T16:11:43.933Z,1018.91
2022-10-07T16:16:45.042Z,1018.90
2022-10-07T16:21:46.454Z,1018.86
2022-10-07T16:26:47.541Z,1018.84
2022-10-07T16:31:48.655Z,1018.86
2022-10-07T16:36:49.932Z,1018.81
2022-10-07T16:41:51.237Z,1018.90
2022-10-07T16:46:52.587Z,1018.89
2022-10-07T16:51:53.772Z,1018.87
2022-10-07T16:56:55.889Z,1018.87
2022-10-07T17:01:55.111Z,1018.88
2022-10-07T17:06:56.477Z,1018.91
2022-10-07T17:11:57.821Z,1018.93
2022-10-07T17:16:59.049Z,1019.00
2022-10-07T17:22:00.154Z,1019.02
2022-10-07T17:27:01.356Z,1019.03
2022-10-07T17:32:02.618Z,1019.03
2022-10-07T17:37:03.841Z,1019.07
2022-10-07T17:42:05.258Z,1019.03
2022-10-07T17:47:06.434Z,1019.03
2022-10-07T17:52:07.729Z,1019.05
2022-10-07T17:57:08.969Z,1019.10
2022-10-07T18:02:10.247Z,1019.08
2022-10-07T18:07:11.358Z,1019.10
2022-10-07T18:12:14.574Z,1019.13
2022-10-07T18:17:13.677Z,1019.14
2022-10-07T18:22:14.845Z,1019.11
2022-10-07T18:27:15.932Z,1019.12
2022-10-07T18:32:17.078Z,1019.01
2022-10-07T18:37:19.370Z,1019.05
2022-10-07T18:42:19.132Z,1019.07
2022-10-07T18:47:18.663Z,1019.04
2022-10-07T18:52:22.388Z,1019.04
2022-10-07T18:57:22.676Z,1018.97
2022-10-07T19:02:18.437Z,1019.03
2022-10-07T19:07:18.147Z,1019.04
2022-10-07T19:12:17.346Z,1019.05
2022-10-07T19:17:18.686Z,1019.08
2022-10-07T19:22:20.861Z,1019.04
2022-10-07T19:27:20.629Z,1019.05
2022-10-07T19:32:20.151Z,1019.02
2022-10-07T19:37:21.644Z,1019.05
2022-10-07T19:42:20.839Z,1019.03
2022-10-07T19:47:22.295Z,1019.04
2022-10-07T19:52:21.923Z,1019.00
2022-10-07T19:57:21.133Z,1018.97
2022-10-07T20:02:22.348Z,1018.98
2022-10-07T20:07:23.452Z,1019.01
2022-10-07T20:12:26.461Z,1018.94
2022-10-07T20:17:26.626Z,1018.90
2022-10-07T20:22:25.728Z,1018.88
2022-10-07T20:27:27.863Z,1018.88
2022-10-07T20:32:27.036Z,1018.77
2022-10-07T20:37:28.776Z,1018.77
2022-10-07T20:42:28.093Z,1018.85
2022-10-07T20:47:29.201Z,1018.85
2022-10-07T20:52:31.318Z,1018.83
2022-10-07T20:57:30.493Z,1018.91
2022-10-07T21:02:31.900Z,1018.85
2022-10-07T21:07:34.105Z,1018.91
2022-10-07T21:12:34.226Z,1018.92
2022-10-07T21:17:33.335Z,1018.87
2022-10-07T21:22:35.414Z,1018.83
2022-10-07T21:27:35.511Z,1018.85
2022-10-07T21:32:34.623Z,1018.89
2022-10-07T21:37:36.733Z,1018.84
2022-10-07T21:42:37.840Z,1018.90
2022-10-07T21:47:36.967Z,1018.87
2022-10-07T21:52:39.076Z,1018.92
2022-10-07T21:57:37.208Z,1018.82
2022-10-07T22:02:38.385Z,1018.78
2022-10-07T22:07:40.537Z,1018.79
2022-10-07T22:12:39.857Z,1018.85
2022-10-07T22:17:43.259Z,1018.91
2022-10-07T22:22:42.434Z,1018.87
2022-10-07T22:27:43.714Z,1018.88
2022-10-07T22:32:44.960Z,1018.88
2022-10-07T22:37:46.295Z,1018.83
2022-10-07T22:42:48.852Z,1018.79
2022-10-07T22:47:48.844Z,1018.77
2022-10-07T22:52:48.562Z,1018.71
2022-10-07T22:57:48.214Z,1018.64
2022-10-07T23:02:49.897Z,1018.60
2022-10-07T23:07:49.363Z,1018.61
2022-10-07T23:12:50.541Z,1018.59
2022-10-07T23:17:51.720Z,1018.59
2022-10-07T23:22:52.915Z,1018.56
2022-10-07T23:27:55.027Z,1018.57
2022-10-07T23:32:54.177Z,1018.58
2022-10-07T23:37:55.318Z,1018.59
2022-10-07T23:42:56.481Z,1018.53
2022-10-07T23:47:57.693Z,1018.50
2022-10-07T23:52:58.778Z,1018.46
2022-10-07T23:58:01.884Z,1018.47
